Time;durP1;ratioP1;P1;durP2;ratioP2;P2;SDS_P1;SDS_P2;PMS_P1;PMS_P2;Temp;Humidity;BMP_temperature;BMP_pressure;BME280_temperature;BME280_humidity;BME280_pressure;Samples;Min_cycle;Max_cycle;Signal;HPM_P1;HPM_P2
2022/09/23 00:01:32;;;;;;;7.60;4.90;;;;;;;;;;5034458;28;20029;-60
2022/09/23 00:03:59;;;;;;;9.52;5.05;;;;;;;;;;5029721;28;20392;-60
2022/09/23 00:06:27;;;;;;;7.55;5.45;;;;;;;;;;5026574;28;20022;-59
2022/09/23 00:08:53;;;;;;;6.60;5.70;;;;;;;;;;5023399;28;20029;-60
2022/09/23 00:11:23;;;;;;;8.32;5.32;;;;;;;;;;5030444;28;20099;-60
2022/09/23 00:13:51;;;;;;;11.85;4.93;;;;;;;;;;5014294;28;20041;-60
2022/09/23 00:16:18;;;;;;;4.80;4.30;;;;;;;;;;5031070;28;20041;-60
2022/09/23 00:18:44;;;;;;;8.18;5.75;;;;;;;;;;5012988;28;20088;-60
2022/09/23 00:21:12;;;;;;;9.10;5.30;;;;;;;;;;5030931;28;20025;-59
2022/09/23 00:23:39;;;;;;;9.05;5.40;;;;;;;;;;5034516;28;20048;-60
2022/09/23 00:26:05;;;;;;;13.85;5.95;;;;;;;;;;5030912;28;20018;-60
2022/09/23 00:28:32;;;;;;;10.68;6.05;;;;;;;;;;5030846;28;20305;-60
2022/09/23 00:31:05;;;;;;;7.18;5.18;;;;;;;;;;5030440;28;20057;-60
2022/09/23 00:33:31;;;;;;;7.25;5.55;;;;;;;;;;5025217;28;20112;-60
2022/09/23 00:36:01;;;;;;;6.93;4.75;;;;;;;;;;5030140;28;20105;-60
2022/09/23 00:38:27;;;;;;;5.47;4.97;;;;;;;;;;5030772;28;20100;-60
2022/09/23 00:40:53;;;;;;;5.72;5.18;;;;;;;;;;5030670;28;20021;-60
2022/09/23 00:43:19;;;;;;;6.43;4.97;;;;;;;;;;5030700;28;20484;-60
2022/09/23 00:45:47;;;;;;;7.13;4.78;;;;;;;;;;5030557;28;20025;-60
2022/09/23 00:48:15;;;;;;;9.20;5.45;;;;;;;;;;5033121;28;20018;-59
2022/09/23 00:50:43;;;;;;;8.15;5.53;;;;;;;;;;5032508;28;20055;-60
2022/09/23 00:53:12;;;;;;;8.45;5.50;;;;;;;;;;5034033;28;20041;-60
2022/09/23 00:55:47;;;;;;;7.35;5.78;;;;;;;;;;5033631;28;20029;-60
2022/09/23 00:58:16;;;;;;;9.30;5.07;;;;;;;;;;5033888;28;20041;-60
2022/09/23 01:00:45;;;;;;;9.52;5.50;;;;;;;;;;5034002;28;20034;-60
2022/09/23 01:03:11;;;;;;;9.93;4.97;;;;;;;;;;5033666;28;20057;-60
2022/09/23 01:05:38;;;;;;;6.93;5.07;;;;;;;;;;5033839;28;20032;-60
2022/09/23 01:08:05;;;;;;;5.53;4.95;;;;;;;;;;5033989;28;20032;-60
2022/09/23 01:10:36;;;;;;;7.57;5.20;;;;;;;;;;5033550;28;20025;-59
2022/09/23 01:13:15;;;;;;;7.20;5.65;;;;;;;;;;5033762;28;20053;-60
2022/09/23 01:15:45;;;;;;;9.75;5.85;;;;;;;;;;5033481;28;20033;-60
2022/09/23 01:18:15;;;;;;;12.35;5.95;;;;;;;;;;5033341;28;20029;-60
2022/09/23 01:21:10;;;;;;;8.27;5.45;;;;;;;;;;5033784;28;20044;-60
2022/09/23 01:23:36;;;;;;;9.30;5.15;;;;;;;;;;4966596;28;20054;-60
2022/09/23 01:26:21;;;;;;;6.93;5.32;;;;;;;;;;5021571;28;20033;-60
2022/09/23 01:29:06;;;;;;;7.72;5.43;;;;;;;;;;5033088;28;20033;-59
2022/09/23 01:31:50;;;;;;;7.47;5.00;;;;;;;;;;5033043;28;20104;-60
2022/09/23 01:34:25;;;;;;;5.78;5.18;;;;;;;;;;5033079;28;20068;-60
2022/09/23 01:36:55;;;;;;;6.28;4.93;;;;;;;;;;5033076;28;20025;-60
2022/09/23 01:39:26;;;;;;;9.65;5.45;;;;;;;;;;5033188;28;20030;-60
2022/09/23 01:41:52;;;;;;;5.97;5.38;;;;;;;;;;5032754;28;20120;-60
2022/09/23 01:44:41;;;;;;;7.60;5.63;;;;;;;;;;5033234;28;20061;-60
2022/09/23 01:47:14;;;;;;;10.27;5.70;;;;;;;;;;5033102;28;20379;-60
2022/09/23 01:49:46;;;;;;;6.95;5.38;;;;;;;;;;5026405;28;20021;-60
2022/09/23 01:52:16;;;;;;;9.93;5.80;;;;;;;;;;5033096;28;20033;-59
2022/09/23 01:54:46;;;;;;;12.50;6.22;;;;;;;;;;5033739;28;20034;-60
2022/09/23 01:57:33;;;;;;;6.78;5.20;;;;;;;;;;5033030;28;20452;-60
2022/09/23 02:00:04;;;;;;;7.07;4.97;;;;;;;;;;5068717;23;20048;-59
2022/09/23 02:02:35;;;;;;;10.65;6.60;;;;;;;;;;5051418;28;20032;-60
2022/09/23 02:05:07;;;;;;;7.28;5.25;;;;;;;;;;5052735;28;20025;-60
2022/09/23 02:07:41;;;;;;;5.82;5.22;;;;;;;;;;5034986;28;20025;-59
2022/09/23 02:10:12;;;;;;;9.70;5.80;;;;;;;;;;5035270;28;20021;-60
2022/09/23 02:12:40;;;;;;;9.88;5.80;;;;;;;;;;5033005;28;20453;-60
2022/09/23 02:15:12;;;;;;;12.45;5.30;;;;;;;;;;5032981;28;20022;-58
2022/09/23 02:18:00;;;;;;;10.48;6.30;;;;;;;;;;5032779;28;20048;-60
2022/09/23 02:20:32;;;;;;;8.95;6.00;;;;;;;;;;5015161;28;20029;-60
2022/09/23 02:23:20;;;;;;;6.35;5.28;;;;;;;;;;5029657;28;20109;-59
2022/09/23 02:25:49;;;;;;;11.57;6.28;;;;;;;;;;5013185;28;20026;-60
2022/09/23 02:28:18;;;;;;;6.85;5.47;;;;;;;;;;5013003;28;20022;-60
2022/09/23 02:30:55;;;;;;;7.47;5.03;;;;;;;;;;4995819;28;20026;-60
2022/09/23 02:33:27;;;;;;;7.10;6.03;;;;;;;;;;5013223;28;20034;-60
2022/09/23 02:36:05;;;;;;;6.22;5.63;;;;;;;;;;5022399;28;20554;-61
2022/09/23 02:38:34;;;;;;;7.80;5.22;;;;;;;;;;5032607;28;20037;-59
2022/09/23 02:41:13;;;;;;;7.28;5.85;;;;;;;;;;5032604;28;20588;-59
2022/09/23 02:43:45;;;;;;;7.55;6.63;;;;;;;;;;5032731;28;20025;-60
2022/09/23 02:46:11;;;;;;;7.88;5.30;;;;;;;;;;5032806;28;20029;-60
2022/09/23 02:48:59;;;;;;;7.80;5.72;;;;;;;;;;5032603;28;20056;-60
2022/09/23 02:51:27;;;;;;;;;;;;;;;;;;5041416;28;20025;-60
2022/09/23 02:53:55;;;;;;;8.10;6.43;;;;;;;;;;5031337;28;19963;-59
2022/09/23 02:56:21;;;;;;;6.95;5.93;;;;;;;;;;5013295;28;20426;-61
2022/09/23 02:58:48;;;;;;;6.75;5.88;;;;;;;;;;5032145;28;20045;-59
2022/09/23 03:01:14;;;;;;;;;;;;;;;;;;5031853;28;20445;-61
2022/09/23 03:03:44;;;;;;;6.63;6.03;;;;;;;;;;5031237;28;19909;-60
2022/09/23 03:06:20;;;;;;;6.93;6.22;;;;;;;;;;5031872;28;20257;-58
2022/09/23 03:08:49;;;;;;;14.50;6.45;;;;;;;;;;4994758;28;20044;-60
2022/09/23 03:11:16;;;;;;;11.45;6.10;;;;;;;;;;4994687;28;20026;-60
2022/09/23 03:13:45;;;;;;;8.80;6.55;;;;;;;;;;5031663;28;20032;-60
2022/09/23 03:16:11;;;;;;;7.72;6.50;;;;;;;;;;5013049;28;20277;-59
2022/09/23 03:18:57;;;;;;;11.35;5.88;;;;;;;;;;5030485;28;20025;-60
2022/09/23 03:21:31;;;;;;;6.97;6.28;;;;;;;;;;5014294;28;20032;-57
2022/09/23 03:23:59;;;;;;;7.25;6.32;;;;;;;;;;5031693;28;20029;-59
2022/09/23 03:26:30;;;;;;;7.25;6.28;;;;;;;;;;5013910;28;20096;-60
2022/09/23 03:28:57;;;;;;;7.32;5.95;;;;;;;;;;5031696;28;20048;-59
2022/09/23 03:31:23;;;;;;;8.05;6.05;;;;;;;;;;5031300;28;20121;-61
2022/09/23 03:33:55;;;;;;;8.60;6.27;;;;;;;;;;5014279;28;20088;-60
2022/09/23 03:39:12;;;;;;;9.07;6.57;;;;;;;;;;5028517;28;20107;-60
2022/09/23 03:41:42;;;;;;;6.72;6.03;;;;;;;;;;5011956;28;20034;-60
2022/09/23 03:44:09;;;;;;;6.80;6.05;;;;;;;;;;5012558;28;20029;-60
2022/09/23 03:46:35;;;;;;;21.83;6.72;;;;;;;;;;5030539;28;20460;-60
2022/09/23 03:49:26;;;;;;;9.10;6.10;;;;;;;;;;5030558;28;20021;-60
2022/09/23 03:51:52;;;;;;;7.78;6.18;;;;;;;;;;5031621;28;20063;-60
2022/09/23 03:54:19;;;;;;;8.98;6.85;;;;;;;;;;5013307;28;20030;-61
2022/09/23 03:56:46;;;;;;;16.35;7.25;;;;;;;;;;5031541;28;20026;-59
2022/09/23 03:59:13;;;;;;;12.40;7.68;;;;;;;;;;5030690;28;20041;-58
2022/09/23 04:01:40;;;;;;;8.30;6.75;;;;;;;;;;5031067;28;20083;-60
2022/09/23 04:04:07;;;;;;;9.57;7.57;;;;;;;;;;5031532;28;20028;-60
2022/09/23 04:06:33;;;;;;;8.40;7.00;;;;;;;;;;5031531;28;20559;-60
2022/09/23 04:09:00;;;;;;;8.70;7.07;;;;;;;;;;5031493;28;20383;-59
2022/09/23 04:11:26;;;;;;;12.85;7.45;;;;;;;;;;5031436;28;20440;-61
2022/09/23 04:13:52;;;;;;;9.50;6.85;;;;;;;;;;5031394;28;20095;-61
2022/09/23 04:16:18;;;;;;;8.90;7.00;;;;;;;;;;5013517;28;20029;-60
2022/09/23 04:18:44;;;;;;;8.55;7.05;;;;;;;;;;5013570;28;20026;-59
2022/09/23 04:21:10;;;;;;;11.60;7.93;;;;;;;;;;5031395;28;20488;-61
2022/09/23 04:23:36;;;;;;;10.90;7.28;;;;;;;;;;5035157;28;20041;-61
2022/09/23 04:26:04;;;;;;;10.38;7.70;;;;;;;;;;5035410;28;20480;-61
2022/09/23 04:28:30;;;;;;;9.27;7.50;;;;;;;;;;5035133;28;20829;-60
2022/09/23 04:30:56;;;;;;;14.85;8.85;;;;;;;;;;5017535;28;20085;-60
2022/09/23 04:33:23;;;;;;;11.73;8.13;;;;;;;;;;5017526;28;20025;-60
2022/09/23 04:35:50;;;;;;;11.00;7.25;;;;;;;;;;5035148;28;20032;-59
2022/09/23 04:38:16;;;;;;;8.88;7.78;;;;;;;;;;5034925;28;20430;-60
2022/09/23 04:40:42;;;;;;;14.82;7.47;;;;;;;;;;5035042;28;20484;-60
2022/09/23 04:43:08;;;;;;;9.73;7.90;;;;;;;;;;5017185;28;20036;-60
2022/09/23 04:45:34;;;;;;;8.98;7.82;;;;;;;;;;5035004;28;20104;-60
2022/09/23 04:48:01;;;;;;;9.37;8.47;;;;;;;;;;5035039;28;20021;-59
2022/09/23 04:50:27;;;;;;;8.43;7.25;;;;;;;;;;5034723;28;20711;-60
2022/09/23 04:52:54;;;;;;;7.77;6.73;;;;;;;;;;5034899;28;20029;-61
2022/09/23 04:55:20;;;;;;;13.07;7.00;;;;;;;;;;5035017;28;20036;-60
2022/09/23 04:57:46;;;;;;;10.63;7.55;;;;;;;;;;5017107;28;20021;-60
2022/09/23 05:00:12;;;;;;;10.35;7.43;;;;;;;;;;5033539;28;20052;-60
2022/09/23 05:02:42;;;;;;;9.67;7.93;;;;;;;;;;5017698;28;20058;-60
2022/09/23 05:05:08;;;;;;;8.27;7.47;;;;;;;;;;5024361;28;20260;-60
2022/09/23 05:07:35;;;;;;;8.70;7.32;;;;;;;;;;5034433;28;20017;-60
2022/09/23 05:10:01;;;;;;;11.45;8.02;;;;;;;;;;5034328;28;20423;-60
2022/09/23 05:12:27;;;;;;;9.30;6.65;;;;;;;;;;5034027;28;20098;-59
2022/09/23 05:14:53;;;;;;;11.93;7.83;;;;;;;;;;5033755;28;20029;-60
2022/09/23 05:17:20;;;;;;;9.15;8.25;;;;;;;;;;5032614;28;20264;-60
2022/09/23 05:19:46;;;;;;;9.98;8.20;;;;;;;;;;5033732;28;20048;-59
2022/09/23 05:22:12;;;;;;;10.23;7.93;;;;;;;;;;5033973;28;20026;-59
2022/09/23 05:24:38;;;;;;;11.73;9.32;;;;;;;;;;5033871;28;20041;-60
2022/09/23 05:27:07;;;;;;;14.90;8.32;;;;;;;;;;5033726;28;20029;-59
2022/09/23 05:29:33;;;;;;;10.55;9.10;;;;;;;;;;5033474;28;20222;-61
2022/09/23 05:32:03;;;;;;;12.50;8.10;;;;;;;;;;5032504;28;20491;-51
2022/09/23 05:34:29;;;;;;;13.07;7.97;;;;;;;;;;5032567;28;20053;-50
2022/09/23 05:36:57;;;;;;;12.27;7.85;;;;;;;;;;5033387;28;20111;-49
2022/09/23 05:39:23;;;;;;;13.00;8.30;;;;;;;;;;5033876;28;20049;-51
2022/09/23 05:41:49;;;;;;;10.18;7.50;;;;;;;;;;5029367;28;20500;-50
2022/09/23 05:44:15;;;;;;;13.88;7.72;;;;;;;;;;5014744;28;20014;-50
2022/09/23 05:46:41;;;;;;;12.43;7.97;;;;;;;;;;5032588;28;20044;-53
2022/09/23 05:49:08;;;;;;;10.18;8.30;;;;;;;;;;5015636;28;20030;-50
2022/09/23 05:51:34;;;;;;;14.65;8.38;;;;;;;;;;5033239;28;20040;-53
2022/09/23 05:54:02;;;;;;;11.68;8.00;;;;;;;;;;5033355;28;20029;-49
2022/09/23 05:56:29;;;;;;;12.00;8.60;;;;;;;;;;5033375;28;20110;-50
2022/09/23 05:58:56;;;;;;;12.93;8.80;;;;;;;;;;5032694;28;20064;-57
2022/09/23 06:01:23;;;;;;;19.33;8.23;;;;;;;;;;5033093;28;20100;-57
2022/09/23 06:03:50;;;;;;;16.42;9.80;;;;;;;;;;5031971;28;20438;-54
2022/09/23 06:06:17;;;;;;;16.08;9.90;;;;;;;;;;5033498;28;20033;-64
2022/09/23 06:08:44;;;;;;;10.60;9.15;;;;;;;;;;5032696;28;20029;-63
2022/09/23 06:11:11;;;;;;;12.85;9.68;;;;;;;;;;5033274;28;20467;-65
2022/09/23 06:13:37;;;;;;;10.98;9.88;;;;;;;;;;5033210;28;20503;-64
2022/09/23 06:16:08;;;;;;;16.83;9.18;;;;;;;;;;5032607;28;20108;-63
2022/09/23 06:18:34;;;;;;;20.30;9.95;;;;;;;;;;5032852;28;20026;-63
2022/09/23 06:21:01;;;;;;;17.30;10.77;;;;;;;;;;5031434;28;20503;-53
2022/09/23 06:23:27;;;;;;;19.58;11.38;;;;;;;;;;5032692;28;20239;-52
2022/09/23 06:25:53;;;;;;;14.18;10.45;;;;;;;;;;5031919;28;20033;-59
2022/09/23 06:28:19;;;;;;;13.07;9.48;;;;;;;;;;5032013;28;20113;-58
2022/09/23 06:30:48;;;;;;;12.85;9.75;;;;;;;;;;5032857;28;20065;-58
2022/09/23 06:33:14;;;;;;;11.27;9.88;;;;;;;;;;5032185;28;20052;-59
2022/09/23 06:35:40;;;;;;;11.75;9.80;;;;;;;;;;5032695;28;20061;-58
2022/09/23 06:38:06;;;;;;;11.23;9.93;;;;;;;;;;5031021;28;20048;-60
2022/09/23 06:40:32;;;;;;;11.13;10.02;;;;;;;;;;5032151;28;20111;-59
2022/09/23 06:42:59;;;;;;;10.88;9.88;;;;;;;;;;5025659;28;20400;-59
2022/09/23 06:45:25;;;;;;;15.57;10.18;;;;;;;;;;5031511;28;20227;-58
2022/09/23 06:47:58;;;;;;;12.52;10.93;;;;;;;;;;5032283;28;20096;-59
2022/09/23 06:50:25;;;;;;;13.18;10.30;;;;;;;;;;5032022;28;20468;-57
2022/09/23 06:52:54;;;;;;;12.80;11.50;;;;;;;;;;5030962;28;20072;-60
2022/09/23 06:55:22;;;;;;;13.80;11.45;;;;;;;;;;5032388;28;20029;-60
2022/09/23 06:57:48;;;;;;;;;;;;;;;;;;5025434;28;20080;-60
2022/09/23 07:00:14;;;;;;;12.80;10.32;;;;;;;;;;5032041;28;19916;-59
2022/09/23 07:02:41;;;;;;;12.50;11.20;;;;;;;;;;5032168;28;20022;-60
2022/09/23 07:05:08;;;;;;;12.85;10.32;;;;;;;;;;5032185;28;20033;-59
2022/09/23 07:07:36;;;;;;;14.27;11.25;;;;;;;;;;5032095;28;20025;-59
2022/09/23 07:10:02;;;;;;;13.25;10.85;;;;;;;;;;5031710;28;20097;-59
2022/09/23 07:12:28;;;;;;;11.67;10.47;;;;;;;;;;5030606;28;20025;-59
2022/09/23 07:14:56;;;;;;;13.55;11.65;;;;;;;;;;5030968;28;20432;-60
2022/09/23 07:17:23;;;;;;;12.05;10.80;;;;;;;;;;5031754;28;20508;-60
2022/09/23 07:19:50;;;;;;;;;;;;;;;;;;5031507;28;20105;-59
2022/09/23 07:22:16;;;;;;;14.15;10.82;;;;;;;;;;5031661;28;20333;-59
2022/09/23 07:24:45;;;;;;;23.15;12.43;;;;;;;;;;5032060;28;20026;-60
2022/09/23 07:27:15;;;;;;;13.98;10.40;;;;;;;;;;5031689;28;20040;-58
2022/09/23 07:29:41;;;;;;;11.85;10.60;;;;;;;;;;5031951;28;20100;-57
2022/09/23 07:32:07;;;;;;;23.50;10.97;;;;;;;;;;5015515;28;20025;-56
2022/09/23 07:34:35;;;;;;;11.45;10.18;;;;;;;;;;5031715;28;20050;-53
2022/09/23 07:37:01;;;;;;;15.32;10.20;;;;;;;;;;5030287;28;20021;-57
2022/09/23 07:39:27;;;;;;;15.00;10.30;;;;;;;;;;5030938;28;20116;-57
2022/09/23 07:41:53;;;;;;;13.13;8.90;;;;;;;;;;5030069;28;20350;-56
2022/09/23 07:44:20;;;;;;;10.60;9.52;;;;;;;;;;5031586;28;20030;-56
2022/09/23 07:46:47;;;;;;;11.43;9.65;;;;;;;;;;5031577;28;20076;-56
2022/09/23 07:49:13;;;;;;;14.45;8.80;;;;;;;;;;5030708;28;20021;-54
2022/09/23 07:51:40;;;;;;;11.15;8.55;;;;;;;;;;5031007;28;20400;-58
2022/09/23 07:54:07;;;;;;;;;;;;;;;;;;5031516;28;20381;-59
2022/09/23 07:56:34;;;;;;;9.48;8.18;;;;;;;;;;5030632;28;20406;-58
2022/09/23 07:59:01;;;;;;;11.77;7.70;;;;;;;;;;5031461;28;20279;-60
2022/09/23 08:01:31;;;;;;;12.57;8.10;;;;;;;;;;5031262;28;20022;-60
2022/09/23 08:03:58;;;;;;;8.25;7.43;;;;;;;;;;5031377;28;20021;-58
2022/09/23 08:06:24;;;;;;;11.43;7.22;;;;;;;;;;5031163;28;20032;-59
2022/09/23 08:08:50;;;;;;;12.80;7.13;;;;;;;;;;5031030;28;20026;-59
2022/09/23 08:11:16;;;;;;;8.03;7.23;;;;;;;;;;5030090;28;20021;-60
2022/09/23 08:13:43;;;;;;;11.73;7.18;;;;;;;;;;5031066;28;20057;-60
2022/09/23 08:16:09;;;;;;;18.70;6.57;;;;;;;;;;5031254;28;20022;-58
2022/09/23 08:18:35;;;;;;;7.03;5.95;;;;;;;;;;5030596;28;20021;-59
2022/09/23 08:21:02;;;;;;;7.93;6.47;;;;;;;;;;5030725;28;20100;-59
2022/09/23 08:23:32;;;;;;;7.95;5.95;;;;;;;;;;5031206;28;20272;-59
2022/09/23 08:25:59;;;;;;;6.53;5.75;;;;;;;;;;5030653;28;20581;-59
2022/09/23 08:28:25;;;;;;;9.43;6.75;;;;;;;;;;5030424;28;20017;-58
2022/09/23 08:30:51;;;;;;;9.23;5.80;;;;;;;;;;5028959;28;20033;-59
2022/09/23 08:33:18;;;;;;;8.27;5.30;;;;;;;;;;5030517;28;20032;-59
2022/09/23 08:35:44;;;;;;;13.43;6.30;;;;;;;;;;5029288;28;20084;-58
2022/09/23 08:38:10;;;;;;;6.83;5.80;;;;;;;;;;5029066;28;20029;-59
2022/09/23 08:40:38;;;;;;;8.07;6.25;;;;;;;;;;5013465;28;20423;-59
2022/09/23 08:43:14;;;;;;;10.75;6.47;;;;;;;;;;5030958;28;20571;-58
2022/09/23 08:45:41;;;;;;;6.75;5.05;;;;;;;;;;5018686;28;20022;-59
2022/09/23 08:48:12;;;;;;;6.03;4.60;;;;;;;;;;5030753;28;20025;-60
2022/09/23 08:50:42;;;;;;;7.45;4.78;;;;;;;;;;5030741;28;20018;-60
2022/09/23 08:53:17;;;;;;;5.63;5.13;;;;;;;;;;5030767;28;20094;-60
2022/09/23 08:55:46;;;;;;;5.00;3.92;;;;;;;;;;5030672;28;20033;-59
2022/09/23 08:58:20;;;;;;;6.43;4.47;;;;;;;;;;5030542;28;20025;-59
2022/09/23 09:00:53;;;;;;;5.90;4.43;;;;;;;;;;5031170;28;20496;-59
2022/09/23 09:03:25;;;;;;;5.25;4.07;;;;;;;;;;5030542;28;20030;-60
2022/09/23 09:05:52;;;;;;;5.75;4.05;;;;;;;;;;5030537;28;20404;-60
2022/09/23 09:08:23;;;;;;;5.53;4.20;;;;;;;;;;5031932;28;20025;-59
2022/09/23 09:10:51;;;;;;;6.78;4.88;;;;;;;;;;5034535;28;20061;-59
2022/09/23 09:13:20;;;;;;;3.90;3.55;;;;;;;;;;5034491;28;20025;-60
2022/09/23 09:16:10;;;;;;;5.88;3.95;;;;;;;;;;5032768;28;20403;-58
2022/09/23 09:18:42;;;;;;;5.35;3.50;;;;;;;;;;5005599;28;20565;-59
2022/09/23 09:21:12;;;;;;;2.63;2.42;;;;;;;;;;5034202;28;20028;-58
2022/09/23 09:23:41;;;;;;;3.85;2.47;;;;;;;;;;5033970;28;20041;-59
2022/09/23 09:26:09;;;;;;;4.72;3.13;;;;;;;;;;5034204;28;20030;-59
2022/09/23 09:28:41;;;;;;;6.60;3.35;;;;;;;;;;5033675;28;20029;-60
2022/09/23 09:31:10;;;;;;;5.47;3.35;;;;;;;;;;5033764;28;20483;-59
2022/09/23 09:33:43;;;;;;;5.25;3.15;;;;;;;;;;5033648;28;20044;-59
2022/09/23 09:36:22;;;;;;;3.70;2.53;;;;;;;;;;5033738;28;20017;-58
2022/09/23 09:38:49;;;;;;;8.38;2.72;;;;;;;;;;5033388;28;20480;-59
2022/09/23 09:41:16;;;;;;;3.05;2.50;;;;;;;;;;5033766;28;20045;-60
2022/09/23 09:43:56;;;;;;;3.35;2.70;;;;;;;;;;5033474;28;20033;-58
2022/09/23 09:46:25;;;;;;;2.85;2.55;;;;;;;;;;5033940;28;20040;-59
2022/09/23 09:48:52;;;;;;;3.35;2.10;;;;;;;;;;5033485;28;20033;-59
2022/09/23 09:51:26;;;;;;;4.95;2.10;;;;;;;;;;5032095;28;20026;-59
2022/09/23 09:53:53;;;;;;;5.32;2.17;;;;;;;;;;5033568;28;20104;-59
2022/09/23 09:56:26;;;;;;;3.30;1.77;;;;;;;;;;5033786;28;20434;-59
2022/09/23 09:58:58;;;;;;;2.30;2.10;;;;;;;;;;5032929;28;20030;-58
2022/09/23 10:01:26;;;;;;;1.90;1.60;;;;;;;;;;5033330;28;20060;-58
2022/09/23 10:03:53;;;;;;;2.80;1.40;;;;;;;;;;5033042;28;20036;-59
2022/09/23 10:06:23;;;;;;;1.90;1.65;;;;;;;;;;5031865;28;20029;-59
2022/09/23 10:09:10;;;;;;;2.50;1.85;;;;;;;;;;5033285;28;20022;-58
2022/09/23 10:11:36;;;;;;;2.20;1.98;;;;;;;;;;5023207;28;20041;-59
2022/09/23 10:14:23;;;;;;;3.03;2.17;;;;;;;;;;5031390;28;20079;-58
2022/09/23 10:17:04;;;;;;;2.33;2.13;;;;;;;;;;5023567;28;20033;-59
2022/09/23 10:19:30;;;;;;;4.75;3.00;;;;;;;;;;5029256;28;20026;-58
2022/09/23 10:21:59;;;;;;;5.55;2.67;;;;;;;;;;5029965;28;20029;-59
2022/09/23 10:24:28;;;;;;;3.88;2.78;;;;;;;;;;5031669;28;20454;-60
2022/09/23 10:26:55;;;;;;;3.67;2.38;;;;;;;;;;5032266;28;20022;-59
2022/09/23 10:29:28;;;;;;;4.68;2.65;;;;;;;;;;5031100;28;20440;-59
2022/09/23 10:32:18;;;;;;;4.80;2.45;;;;;;;;;;5026982;28;20044;-59
2022/09/23 10:34:46;;;;;;;2.60;2.10;;;;;;;;;;5012318;28;20029;-60
2022/09/23 10:37:15;;;;;;;2.38;1.80;;;;;;;;;;5028386;28;20039;-59
2022/09/23 10:48:14;;;;;;;2.88;1.75;;;;;;;;;;5031503;28;20037;-59
2022/09/23 10:50:52;;;;;;;2.45;1.75;;;;;;;;;;5026392;28;20029;-59
2022/09/23 10:53:18;;;;;;;;;;;;;;;;;;5031880;28;20029;-59
2022/09/23 10:56:03;;;;;;;3.28;1.80;;;;;;;;;;5030660;28;20264;-59
2022/09/23 10:58:29;;;;;;;1.92;1.73;;;;;;;;;;5031007;28;20033;-59
2022/09/23 11:01:07;;;;;;;3.40;1.70;;;;;;;;;;5032273;28;20595;-59
2022/09/23 11:03:49;;;;;;;2.17;1.75;;;;;;;;;;5031506;28;20025;-60
2022/09/23 11:06:21;;;;;;;2.55;1.92;;;;;;;;;;5031455;28;20112;-59
2022/09/23 11:08:55;;;;;;;2.17;1.80;;;;;;;;;;5030835;28;20025;-57
2022/09/23 11:11:21;;;;;;;3.47;1.85;;;;;;;;;;5031448;28;20175;-59
2022/09/23 11:13:51;;;;;;;2.43;1.93;;;;;;;;;;5031629;28;20030;-59
2022/09/23 11:16:20;;;;;;;2.42;1.83;;;;;;;;;;5031269;28;20120;-60
2022/09/23 11:19:05;;;;;;;2.33;1.98;;;;;;;;;;5029922;28;20037;-59
2022/09/23 11:21:50;;;;;;;3.35;2.67;;;;;;;;;;5029657;28;20064;-58
2022/09/23 11:24:27;;;;;;;4.07;2.30;;;;;;;;;;5031462;28;20101;-60
2022/09/23 11:26:56;;;;;;;2.60;2.17;;;;;;;;;;5030522;28;20111;-57
2022/09/23 11:29:41;;;;;;;3.65;2.30;;;;;;;;;;5031373;28;20134;-59
2022/09/23 11:32:10;;;;;;;2.80;2.20;;;;;;;;;;5031559;28;20084;-60
2022/09/23 11:34:39;;;;;;;2.30;1.98;;;;;;;;;;5030617;28;20022;-60
2022/09/23 11:37:16;;;;;;;5.72;2.17;;;;;;;;;;5031801;28;20053;-58
2022/09/23 11:40:04;;;;;;;3.10;2.15;;;;;;;;;;5030919;28;20033;-60
2022/09/23 11:42:35;;;;;;;4.45;2.08;;;;;;;;;;5030851;28;20025;-59
2022/09/23 11:45:06;;;;;;;8.18;2.17;;;;;;;;;;5025372;28;20047;-59
2022/09/23 11:47:41;;;;;;;5.90;2.22;;;;;;;;;;5031467;28;20100;-59
2022/09/23 11:50:16;;;;;;;5.65;2.30;;;;;;;;;;5026581;28;20053;-59
2022/09/23 11:52:50;;;;;;;2.20;1.95;;;;;;;;;;5030606;28;20025;-58
2022/09/23 11:55:33;;;;;;;2.38;2.10;;;;;;;;;;5027023;28;20391;-59
2022/09/23 11:58:02;;;;;;;3.53;1.95;;;;;;;;;;5031224;28;20026;-59
2022/09/23 12:00:34;;;;;;;3.53;3.22;;;;;;;;;;5030736;28;20033;-60
2022/09/23 12:03:17;;;;;;;3.00;2.50;;;;;;;;;;5030308;28;20041;-59
2022/09/23 12:05:53;;;;;;;2.70;2.45;;;;;;;;;;5031402;28;20021;-59
2022/09/23 12:08:31;;;;;;;4.50;2.33;;;;;;;;;;5019314;28;20366;-57
2022/09/23 12:10:57;;;;;;;2.60;2.20;;;;;;;;;;5031010;28;20091;-59
2022/09/23 12:13:41;;;;;;;4.15;2.42;;;;;;;;;;5026982;28;20029;-59
2022/09/23 12:16:10;;;;;;;2.88;2.15;;;;;;;;;;5030806;28;20029;-59
2022/09/23 12:18:42;;;;;;;3.28;1.95;;;;;;;;;;5030782;28;20057;-58
2022/09/23 12:21:08;;;;;;;3.30;2.45;;;;;;;;;;5031075;28;20033;-59
2022/09/23 12:23:34;;;;;;;2.60;2.38;;;;;;;;;;5030696;28;20033;-59
2022/09/23 12:26:03;;;;;;;4.03;2.30;;;;;;;;;;5029555;28;20075;-58
2022/09/23 12:28:30;;;;;;;3.53;1.90;;;;;;;;;;5028545;28;20488;-59
2022/09/23 12:30:57;;;;;;;4.15;2.40;;;;;;;;;;5030912;28;20033;-57
2022/09/23 12:33:28;;;;;;;5.70;2.75;;;;;;;;;;5027899;28;20451;-56
2022/09/23 12:36:03;;;;;;;4.30;2.28;;;;;;;;;;5028751;28;20037;-59
2022/09/23 12:38:32;;;;;;;4.05;2.90;;;;;;;;;;5030651;28;20137;-59
2022/09/23 12:40:59;;;;;;;3.97;2.40;;;;;;;;;;5030972;28;20459;-59
2022/09/23 12:43:26;;;;;;;;;;;;;;;;;;5032093;28;20061;-59
2022/09/23 12:45:52;;;;;;;3.63;2.67;;;;;;;;;;5034662;28;19911;-59
2022/09/23 12:48:18;;;;;;;4.93;2.80;;;;;;;;;;5034701;28;20022;-59
2022/09/23 12:50:50;;;;;;;4.20;2.63;;;;;;;;;;5033936;28;20652;-57
2022/09/23 12:53:51;;;;;;;3.55;2.33;;;;;;;;;;5033808;28;20411;-58
2022/09/23 12:56:18;;;;;;;3.97;2.58;;;;;;;;;;5034238;28;20365;-59
2022/09/23 12:58:44;;;;;;;5.13;2.58;;;;;;;;;;5034234;28;20045;-59
2022/09/23 13:01:13;;;;;;;5.47;2.70;;;;;;;;;;5033902;28;20029;-53
2022/09/23 13:06:57;;;;;;;5.78;4.60;;;;;;;;;;5033504;28;20087;-55
2022/09/23 13:09:28;;;;;;;6.18;4.68;;;;;;;;;;5033698;28;20025;-59
2022/09/23 13:11:59;;;;;;;5.00;2.58;;;;;;;;;;5034374;28;20499;-59
2022/09/23 13:14:26;;;;;;;4.03;3.10;;;;;;;;;;5026215;28;20083;-59
2022/09/23 13:16:52;;;;;;;5.00;3.08;;;;;;;;;;5034012;28;20061;-59
2022/09/23 13:19:27;;;;;;;4.45;2.15;;;;;;;;;;5033836;28;20029;-58
2022/09/23 13:21:53;;;;;;;4.00;2.40;;;;;;;;;;5033543;28;20080;-58
2022/09/23 13:24:23;;;;;;;6.50;2.97;;;;;;;;;;5025110;28;20030;-59
2022/09/23 13:26:49;;;;;;;4.40;2.83;;;;;;;;;;5016155;28;20068;-58
2022/09/23 13:29:21;;;;;;;7.03;2.97;;;;;;;;;;5033831;28;20032;-58
2022/09/23 13:31:48;;;;;;;5.75;2.53;;;;;;;;;;5033205;28;20030;-59
2022/09/23 13:34:16;;;;;;;5.97;3.22;;;;;;;;;;5033465;28;20488;-59
2022/09/23 13:36:46;;;;;;;7.05;3.42;;;;;;;;;;5029732;28;20036;-58
2022/09/23 13:39:28;;;;;;;4.80;3.17;;;;;;;;;;5030335;28;20036;-55
2022/09/23 13:42:01;;;;;;;3.92;2.88;;;;;;;;;;5031470;28;20040;-58
2022/09/23 13:44:28;;;;;;;4.53;3.15;;;;;;;;;;5033032;28;20483;-58
2022/09/23 13:46:58;;;;;;;3.80;3.13;;;;;;;;;;5016239;28;20508;-58
2022/09/23 13:49:27;;;;;;;3.88;2.85;;;;;;;;;;5033587;28;20039;-58
2022/09/23 13:51:54;;;;;;;4.25;3.33;;;;;;;;;;5033144;28;20025;-58
2022/09/23 13:54:30;;;;;;;5.18;2.97;;;;;;;;;;5031790;28;20071;-59
2022/09/23 13:56:57;;;;;;;10.15;3.17;;;;;;;;;;5030000;28;20033;-59
2022/09/23 13:59:25;;;;;;;3.13;2.83;;;;;;;;;;5032757;28;20030;-58
2022/09/23 14:02:01;;;;;;;3.22;2.88;;;;;;;;;;5032087;28;20385;-58
2022/09/23 14:04:27;;;;;;;4.03;3.00;;;;;;;;;;5031057;28;20017;-60
2022/09/23 14:06:54;;;;;;;6.15;3.45;;;;;;;;;;5032809;28;20620;-59
2022/09/23 14:09:21;;;;;;;4.68;3.35;;;;;;;;;;5031275;28;20030;-59
2022/09/23 14:11:48;;;;;;;3.58;3.25;;;;;;;;;;5032226;28;20033;-59
2022/09/23 14:14:15;;;;;;;3.88;3.30;;;;;;;;;;5032318;28;20033;-59
2022/09/23 14:16:41;;;;;;;4.10;3.47;;;;;;;;;;5032869;28;20448;-60
2022/09/23 14:19:07;;;;;;;;;;;;;;;;;;5033096;28;20030;-59
2022/09/23 14:21:38;;;;;;;6.47;3.72;;;;;;;;;;5031380;28;20287;-59
2022/09/23 14:24:10;;;;;;;6.75;3.67;;;;;;;;;;5031442;28;20476;-60
2022/09/23 14:26:36;;;;;;;5.93;5.32;;;;;;;;;;5021295;28;20017;-61
2022/09/23 14:29:02;;;;;;;19.98;15.90;;;;;;;;;;5032390;28;20075;-59
2022/09/23 14:31:28;;;;;;;5.03;3.47;;;;;;;;;;5033032;28;20017;-59
2022/09/23 14:33:54;;;;;;;5.80;3.15;;;;;;;;;;5032649;28;20112;-59
2022/09/23 14:39:10;;;;;;;7.38;2.53;;;;;;;;;;5032420;28;20109;-58
2022/09/23 14:41:37;;;;;;;11.77;3.08;;;;;;;;;;5032139;28;20025;-59
2022/09/23 14:44:04;;;;;;;5.38;3.05;;;;;;;;;;5032117;28;20028;-59
2022/09/23 14:46:33;;;;;;;5.68;3.13;;;;;;;;;;5032459;28;20021;-58
2022/09/23 14:49:06;;;;;;;3.80;3.25;;;;;;;;;;5032235;28;20392;-59
2022/09/23 14:51:39;;;;;;;7.88;3.45;;;;;;;;;;5032428;28;20017;-60
2022/09/23 14:54:25;;;;;;;4.97;4.15;;;;;;;;;;5030797;28;20017;-59
2022/09/23 14:56:51;;;;;;;3.42;3.13;;;;;;;;;;5029581;28;20022;-59
2022/09/23 14:59:26;;;;;;;4.43;3.92;;;;;;;;;;5031835;28;20038;-58
2022/09/23 15:01:52;;;;;;;5.43;3.65;;;;;;;;;;5020413;28;20411;-59
2022/09/23 15:04:21;;;;;;;5.95;3.95;;;;;;;;;;5030578;28;20170;-58
2022/09/23 15:06:55;;;;;;;4.38;3.25;;;;;;;;;;5030591;28;20022;-59
2022/09/23 15:09:41;;;;;;;6.72;3.53;;;;;;;;;;5031766;28;20026;-58
2022/09/23 15:12:11;;;;;;;5.05;3.78;;;;;;;;;;5031652;28;20040;-59
2022/09/23 15:14:39;;;;;;;7.97;3.65;;;;;;;;;;5032038;28;20036;-57